ARE4210 SKBO-SKCL
Flight info
| Callsign | ARE4210 |
|---|---|
| Flight time | 0h 32m |
| Altitude | 22000 |
| Route | KAMIS4C KAMIS W16 GIR R564 OREGA OREGA5A |
| Aircraft | A20N/M-SDE2E3FGHIRWXY/LB1 |
Departure
| Time | 2026-04-26 21:39 |
|---|---|
| Airport | El Dorado International Airport (SKBO) |
Arrival
| Time | 2026-04-26 22:11 |
|---|---|
| Airport | Alfonso Bonilla Aragon International Airport (SKCL) |
| Time | Latitude | Longitude | Altitude | Speed | Heading |
|---|---|---|---|---|---|
| 2026-04-26 21:19 | 4.70026 | -74.14382 | 8366 ft | 0 kts | 37° |
| 2026-04-26 21:27 | 4.70021 | -74.14385 | 8366 ft | 2 kts | 37° |
| 2026-04-26 21:27 | 4.70002 | -74.14400 | 8366 ft | 9 kts | 37° |
| 2026-04-26 21:27 | 4.69972 | -74.14413 | 8366 ft | 2 kts | 302° |
| 2026-04-26 21:27 | 4.69982 | -74.14428 | 8365 ft | 6 kts | 304° |
| 2026-04-26 21:28 | 4.69991 | -74.14441 | 8366 ft | 0 kts | 306° |
| 2026-04-26 21:32 | 4.69999 | -74.14452 | 8366 ft | 5 kts | 306° |
| 2026-04-26 21:32 | 4.70031 | -74.14495 | 8366 ft | 10 kts | 306° |
| 2026-04-26 21:33 | 4.70044 | -74.14513 | 8366 ft | 5 kts | 306° |
| 2026-04-26 21:33 | 4.70065 | -74.14540 | 8366 ft | 8 kts | 304° |
| 2026-04-26 21:33 | 4.70060 | -74.14575 | 8366 ft | 6 kts | 225° |
| 2026-04-26 21:33 | 4.70004 | -74.14620 | 8366 ft | 15 kts | 216° |
| 2026-04-26 21:34 | 4.69897 | -74.14699 | 8365 ft | 20 kts | 217° |
| 2026-04-26 21:34 | 4.69804 | -74.14769 | 8365 ft | 15 kts | 217° |
| 2026-04-26 21:34 | 4.69738 | -74.14799 | 8365 ft | 11 kts | 174° |
| 2026-04-26 21:34 | 4.69683 | -74.14751 | 8365 ft | 12 kts | 127° |
| 2026-04-26 21:35 | 4.69629 | -74.14679 | 8365 ft | 14 kts | 127° |
| 2026-04-26 21:35 | 4.69562 | -74.14589 | 8365 ft | 18 kts | 127° |
| 2026-04-26 21:35 | 4.69480 | -74.14483 | 8365 ft | 20 kts | 127° |
| 2026-04-26 21:35 | 4.69390 | -74.14363 | 8365 ft | 23 kts | 127° |
| 2026-04-26 21:36 | 4.69292 | -74.14233 | 8365 ft | 23 kts | 128° |
| 2026-04-26 21:36 | 4.69222 | -74.14141 | 8366 ft | 11 kts | 127° |
| 2026-04-26 21:36 | 4.69208 | -74.14122 | 8365 ft | 3 kts | 127° |
| 2026-04-26 21:36 | 4.69187 | -74.14096 | 8366 ft | 7 kts | 133° |
| 2026-04-26 21:37 | 4.69135 | -74.14075 | 8365 ft | 4 kts | 168° |
| 2026-04-26 21:37 | 4.69133 | -74.14076 | 8366 ft | 0 kts | 178° |
| 2026-04-26 21:37 | 4.69127 | -74.14079 | 8365 ft | 4 kts | 201° |
| 2026-04-26 21:37 | 4.69069 | -74.14120 | 8365 ft | 16 kts | 218° |
| 2026-04-26 21:38 | 4.69016 | -74.14217 | 8365 ft | 21 kts | 285° |
| 2026-04-26 21:38 | 4.69166 | -74.14416 | 8364 ft | 62 kts | 304° |
| 2026-04-26 21:38 | 4.69536 | -74.14919 | 8363 ft | 114 kts | 307° |
| 2026-04-26 21:38 | 4.70103 | -74.15670 | 8364 ft | 154 kts | 307° |
| 2026-04-26 21:39 | 4.70817 | -74.16600 | 8623 ft | 171 kts | 308° |
| 2026-04-26 21:39 | 4.71593 | -74.17509 | 9309 ft | 175 kts | 312° |
| 2026-04-26 21:39 | 4.72458 | -74.18409 | 9870 ft | 183 kts | 315° |
| 2026-04-26 21:39 | 4.73335 | -74.19344 | 10325 ft | 189 kts | 307° |
| 2026-04-26 21:40 | 4.74098 | -74.20512 | 10518 ft | 210 kts | 300° |
| 2026-04-26 21:40 | 4.74884 | -74.21821 | 10706 ft | 233 kts | 302° |
| 2026-04-26 21:40 | 4.75810 | -74.23266 | 10928 ft | 255 kts | 300° |
| 2026-04-26 21:40 | 4.76338 | -74.24972 | 11301 ft | 266 kts | 271° |
| 2026-04-26 21:41 | 4.75992 | -74.26795 | 11769 ft | 268 kts | 244° |
| 2026-04-26 21:41 | 4.74933 | -74.28347 | 12325 ft | 270 kts | 231° |
| 2026-04-26 21:41 | 4.73776 | -74.29814 | 13031 ft | 271 kts | 234° |
| 2026-04-26 21:41 | 4.72728 | -74.31407 | 13664 ft | 274 kts | 239° |
| 2026-04-26 21:42 | 4.71826 | -74.33083 | 14264 ft | 277 kts | 244° |
| 2026-04-26 21:42 | 4.71004 | -74.34839 | 14818 ft | 279 kts | 246° |
| 2026-04-26 21:42 | 4.70228 | -74.36613 | 15374 ft | 281 kts | 247° |
| 2026-04-26 21:42 | 4.69458 | -74.38447 | 15921 ft | 284 kts | 247° |
| 2026-04-26 21:43 | 4.68698 | -74.40287 | 16456 ft | 287 kts | 248° |
| 2026-04-26 21:43 | 4.67790 | -74.42043 | 16974 ft | 289 kts | 233° |
| 2026-04-26 21:43 | 4.66357 | -74.43478 | 17477 ft | 292 kts | 215° |
| 2026-04-26 21:43 | 4.64623 | -74.44547 | 17864 ft | 301 kts | 211° |
| 2026-04-26 21:44 | 4.62788 | -74.45648 | 18087 ft | 314 kts | 211° |
| 2026-04-26 21:44 | 4.60856 | -74.46815 | 18229 ft | 331 kts | 211° |
| 2026-04-26 21:44 | 4.58852 | -74.48031 | 18344 ft | 349 kts | 211° |
| 2026-04-26 21:44 | 4.56728 | -74.49323 | 18469 ft | 365 kts | 212° |
| 2026-04-26 21:45 | 4.54702 | -74.50954 | 18597 ft | 380 kts | 229° |
| 2026-04-26 21:45 | 4.53115 | -74.53133 | 18727 ft | 394 kts | 238° |
| 2026-04-26 21:45 | 4.51690 | -74.55497 | 18834 ft | 408 kts | 239° |
| 2026-04-26 21:45 | 4.50172 | -74.57989 | 18933 ft | 421 kts | 238° |
| 2026-04-26 21:46 | 4.48567 | -74.60488 | 19031 ft | 433 kts | 237° |
| 2026-04-26 21:46 | 4.46865 | -74.63029 | 19121 ft | 445 kts | 236° |
| 2026-04-26 21:46 | 4.45110 | -74.65589 | 19202 ft | 455 kts | 235° |
| 2026-04-26 21:46 | 4.43286 | -74.68227 | 19362 ft | 462 kts | 235° |
| 2026-04-26 21:47 | 4.41446 | -74.70881 | 19757 ft | 463 kts | 235° |
| 2026-04-26 21:47 | 4.39624 | -74.73510 | 19996 ft | 468 kts | 235° |
| 2026-04-26 21:47 | 4.37741 | -74.76229 | 20156 ft | 474 kts | 235° |
| 2026-04-26 21:47 | 4.35853 | -74.78956 | 20530 ft | 475 kts | 235° |
| 2026-04-26 21:48 | 4.33987 | -74.81652 | 20975 ft | 474 kts | 235° |
| 2026-04-26 21:48 | 4.32098 | -74.84382 | 21419 ft | 474 kts | 235° |
| 2026-04-26 21:48 | 4.30244 | -74.87061 | 21680 ft | 472 kts | 235° |
| 2026-04-26 21:48 | 4.28352 | -74.89794 | 21751 ft | 480 kts | 235° |
| 2026-04-26 21:49 | 4.26441 | -74.92554 | 21767 ft | 480 kts | 235° |
| 2026-04-26 21:49 | 4.24565 | -74.95264 | 21781 ft | 477 kts | 235° |
| 2026-04-26 21:49 | 4.22668 | -74.98003 | 21798 ft | 478 kts | 235° |
| 2026-04-26 21:49 | 4.20766 | -75.00749 | 21817 ft | 478 kts | 235° |
| 2026-04-26 21:50 | 4.18870 | -75.03487 | 21900 ft | 478 kts | 235° |
| 2026-04-26 21:50 | 4.17609 | -75.05306 | 21899 ft | 478 kts | 235° |
| 2026-04-26 21:50 | 4.15101 | -75.08928 | 21899 ft | 478 kts | 235° |
| 2026-04-26 21:50 | 4.13199 | -75.11672 | 21904 ft | 478 kts | 235° |
| 2026-04-26 21:51 | 4.11312 | -75.14395 | 21906 ft | 478 kts | 235° |
| 2026-04-26 21:51 | 4.09403 | -75.17150 | 21912 ft | 478 kts | 235° |
| 2026-04-26 21:51 | 4.07508 | -75.19884 | 21912 ft | 478 kts | 235° |
| 2026-04-26 21:51 | 4.05613 | -75.22618 | 21915 ft | 478 kts | 235° |
| 2026-04-26 21:52 | 4.03735 | -75.25328 | 21923 ft | 478 kts | 235° |
| 2026-04-26 21:52 | 4.01827 | -75.28079 | 21927 ft | 478 kts | 235° |
| 2026-04-26 21:52 | 3.99930 | -75.30815 | 21935 ft | 478 kts | 235° |
| 2026-04-26 21:52 | 3.98035 | -75.33549 | 21940 ft | 478 kts | 235° |
| 2026-04-26 21:53 | 3.96148 | -75.36269 | 21948 ft | 478 kts | 235° |
| 2026-04-26 21:53 | 3.94239 | -75.39022 | 21949 ft | 478 kts | 235° |
| 2026-04-26 21:53 | 3.92337 | -75.41763 | 21957 ft | 478 kts | 235° |
| 2026-04-26 21:53 | 3.90457 | -75.44473 | 21963 ft | 478 kts | 235° |
| 2026-04-26 21:54 | 3.88563 | -75.47204 | 21968 ft | 478 kts | 235° |
| 2026-04-26 21:54 | 3.86758 | -75.50022 | 21974 ft | 478 kts | 240° |
| 2026-04-26 21:54 | 3.85274 | -75.52992 | 21990 ft | 469 kts | 245° |
| 2026-04-26 21:54 | 3.83933 | -75.55857 | 21990 ft | 448 kts | 245° |
| 2026-04-26 21:55 | 3.82633 | -75.58620 | 21998 ft | 427 kts | 245° |
| 2026-04-26 21:55 | 3.81405 | -75.61222 | 22004 ft | 408 kts | 244° |
| 2026-04-26 21:55 | 3.80191 | -75.63794 | 22008 ft | 410 kts | 245° |
| 2026-04-26 21:55 | 3.78957 | -75.66405 | 21945 ft | 414 kts | 245° |
| 2026-04-26 21:56 | 3.77737 | -75.68988 | 21537 ft | 416 kts | 245° |
| 2026-04-26 21:56 | 3.76495 | -75.71619 | 20867 ft | 419 kts | 245° |
| 2026-04-26 21:56 | 3.75247 | -75.74261 | 20333 ft | 415 kts | 245° |
| 2026-04-26 21:56 | 3.74025 | -75.76849 | 19745 ft | 412 kts | 245° |
| 2026-04-26 21:57 | 3.72820 | -75.79398 | 19191 ft | 400 kts | 245° |
| 2026-04-26 21:57 | 3.71646 | -75.81884 | 18650 ft | 389 kts | 245° |
| 2026-04-26 21:57 | 3.70508 | -75.84291 | 18192 ft | 376 kts | 245° |
| 2026-04-26 21:57 | 3.69394 | -75.86650 | 17674 ft | 372 kts | 245° |
| 2026-04-26 21:58 | 3.68302 | -75.88961 | 17160 ft | 369 kts | 245° |
| 2026-04-26 21:58 | 3.67212 | -75.91269 | 16649 ft | 366 kts | 245° |
| 2026-04-26 21:58 | 3.66120 | -75.93579 | 16164 ft | 363 kts | 245° |
| 2026-04-26 21:58 | 3.65127 | -75.95682 | 15963 ft | 361 kts | 245° |
| 2026-04-26 21:59 | 3.64071 | -75.97916 | 15888 ft | 347 kts | 245° |
| 2026-04-26 21:59 | 3.63075 | -76.00022 | 15881 ft | 331 kts | 245° |
| 2026-04-26 21:59 | 3.62112 | -76.02058 | 15880 ft | 316 kts | 245° |
| 2026-04-26 21:59 | 3.61168 | -76.04056 | 15867 ft | 322 kts | 245° |
| 2026-04-26 22:00 | 3.60205 | -76.06094 | 15848 ft | 324 kts | 245° |
| 2026-04-26 22:00 | 3.59242 | -76.08132 | 15692 ft | 320 kts | 245° |
| 2026-04-26 22:00 | 3.58296 | -76.10136 | 15267 ft | 315 kts | 245° |
| 2026-04-26 22:00 | 3.57375 | -76.12086 | 14936 ft | 305 kts | 245° |
| 2026-04-26 22:01 | 3.56472 | -76.13998 | 14421 ft | 303 kts | 245° |
| 2026-04-26 22:01 | 3.55577 | -76.15894 | 13894 ft | 301 kts | 244° |
| 2026-04-26 22:01 | 3.54701 | -76.17749 | 13646 ft | 287 kts | 244° |
| 2026-04-26 22:01 | 3.53865 | -76.19517 | 13347 ft | 276 kts | 244° |
| 2026-04-26 22:02 | 3.53060 | -76.21221 | 12877 ft | 272 kts | 244° |
| 2026-04-26 22:02 | 3.52513 | -76.22378 | 12518 ft | 272 kts | 244° |
| 2026-04-26 22:02 | 3.51438 | -76.24654 | 11873 ft | 269 kts | 244° |
| 2026-04-26 22:02 | 3.50659 | -76.26303 | 11488 ft | 263 kts | 244° |
| 2026-04-26 22:03 | 3.49762 | -76.27880 | 11077 ft | 261 kts | 227° |
| 2026-04-26 22:03 | 3.48296 | -76.28908 | 10725 ft | 259 kts | 199° |
| 2026-04-26 22:03 | 3.46553 | -76.29353 | 10381 ft | 258 kts | 192° |
| 2026-04-26 22:03 | 3.44798 | -76.29715 | 10068 ft | 257 kts | 191° |
| 2026-04-26 22:04 | 3.43057 | -76.30068 | 9652 ft | 255 kts | 191° |
| 2026-04-26 22:04 | 3.41321 | -76.30431 | 9159 ft | 254 kts | 192° |
| 2026-04-26 22:04 | 3.39602 | -76.30801 | 8688 ft | 252 kts | 192° |
| 2026-04-26 22:04 | 3.37896 | -76.31174 | 8298 ft | 247 kts | 192° |
| 2026-04-26 22:05 | 3.36273 | -76.31533 | 8150 ft | 230 kts | 193° |
| 2026-04-26 22:05 | 3.34746 | -76.31878 | 7897 ft | 221 kts | 197° |
| 2026-04-26 22:05 | 3.33449 | -76.32663 | 7523 ft | 220 kts | 231° |
| 2026-04-26 22:05 | 3.32810 | -76.34024 | 7177 ft | 218 kts | 265° |
| 2026-04-26 22:06 | 3.33043 | -76.35489 | 6851 ft | 215 kts | 298° |
| 2026-04-26 22:06 | 3.33797 | -76.36756 | 6571 ft | 214 kts | 303° |
| 2026-04-26 22:06 | 3.34598 | -76.38006 | 6294 ft | 213 kts | 303° |
| 2026-04-26 22:06 | 3.35377 | -76.39256 | 6049 ft | 209 kts | 302° |
| 2026-04-26 22:07 | 3.36312 | -76.40353 | 5958 ft | 212 kts | 328° |
| 2026-04-26 22:07 | 3.37693 | -76.40823 | 5875 ft | 208 kts | 355° |
| 2026-04-26 22:07 | 3.39103 | -76.40795 | 5728 ft | 200 kts | 6° |
| 2026-04-26 22:07 | 3.40032 | -76.40666 | 5588 ft | 199 kts | 9° |
| 2026-04-26 22:08 | 3.41843 | -76.40346 | 5326 ft | 193 kts | 9° |
| 2026-04-26 22:08 | 3.43138 | -76.40121 | 5058 ft | 185 kts | 9° |
| 2026-04-26 22:08 | 3.44373 | -76.39906 | 4832 ft | 176 kts | 9° |
| 2026-04-26 22:08 | 3.45549 | -76.39701 | 4610 ft | 168 kts | 8° |
| 2026-04-26 22:09 | 3.46674 | -76.39504 | 4419 ft | 156 kts | 8° |
| 2026-04-26 22:09 | 3.47686 | -76.39328 | 4230 ft | 143 kts | 7° |
| 2026-04-26 22:09 | 3.48684 | -76.39154 | 4049 ft | 148 kts | 6° |
| 2026-04-26 22:09 | 3.49685 | -76.38979 | 3805 ft | 147 kts | 7° |
| 2026-04-26 22:10 | 3.50682 | -76.38797 | 3610 ft | 146 kts | 7° |
| 2026-04-26 22:10 | 3.51696 | -76.38619 | 3446 ft | 149 kts | 5° |
| 2026-04-26 22:10 | 3.52708 | -76.38437 | 3277 ft | 148 kts | 7° |
| 2026-04-26 22:10 | 3.53724 | -76.38267 | 3165 ft | 144 kts | 8° |
| 2026-04-26 22:11 | 3.54514 | -76.38137 | 3165 ft | 86 kts | 9° |
| 2026-04-26 22:11 | 3.54906 | -76.38069 | 3164 ft | 28 kts | 9° |
| 2026-04-26 22:11 | 3.55068 | -76.38053 | 3166 ft | 22 kts | 339° |
| 2026-04-26 22:11 | 3.55102 | -76.38117 | 3168 ft | 12 kts | 281° |
| 2026-04-26 22:12 | 3.55079 | -76.38195 | 3169 ft | 15 kts | 208° |
| 2026-04-26 22:12 | 3.54947 | -76.38223 | 3167 ft | 24 kts | 190° |
| 2026-04-26 22:12 | 3.54761 | -76.38255 | 3169 ft | 31 kts | 189° |
| 2026-04-26 22:12 | 3.54528 | -76.38296 | 3165 ft | 37 kts | 189° |
| 2026-04-26 22:13 | 3.54286 | -76.38338 | 3165 ft | 34 kts | 189° |
| 2026-04-26 22:13 | 3.54104 | -76.38374 | 3165 ft | 28 kts | 201° |
| 2026-04-26 22:13 | 3.53945 | -76.38499 | 3163 ft | 25 kts | 219° |
| 2026-04-26 22:13 | 3.53847 | -76.38579 | 3162 ft | 14 kts | 220° |
| 2026-04-26 22:14 | 3.53792 | -76.38584 | 3162 ft | 7 kts | 151° |
| 2026-04-26 22:14 | 3.53767 | -76.38569 | 3162 ft | 7 kts | 148° |
| 2026-04-26 22:14 | 3.53722 | -76.38571 | 3162 ft | 2 kts | 220° |
| 2026-04-26 22:14 | 3.53713 | -76.38591 | 3162 ft | 3 kts | 249° |
| 2026-04-26 22:15 | 3.53709 | -76.38602 | 3164 ft | 0 kts | 249° |
| 2026-04-26 22:15 | 3.53709 | -76.38603 | 3164 ft | 0 kts | 249° |